Scholes International At Galveston Airport
KGLS : now visible

Airfield :











YOU CAN JOIN US ON...

 
LOGIN :

Register | Disclaimer

   EN    FR    IT 

 









Legend :    VFR   Marginal VFR   IFR   Intensive IFR   Very Intensive IFR
Visi :
Ceiling :
>= 8 km
>= 3000ft
5 to 8 km
1000 to 3000 ft
1500m to 5 km
500 to 1000 ft
800 to 1500m
200 to 500 ft
< 800m
< 200 ft
Symbols :   Thunderstorms  Fog  Heavy snow  Heavy precipitations  Wind > 20 kt






- Airport Elevation : 6 ft
- IATA code : GLS


KGLS - Scholes International At Galveston

CURRENT METAR :
  • 272152Z 11009KT 10SM OVC080 30/25 A2995 RMK AO2 SLP143 T03000250

EXPIRED METARs :
  • 272052Z 12010KT 10SM SCT012 SCT080 31/25 A2995 RMK AO2 SLP142 T03060250 56021
  • 271952Z 10012KT 10SM FEW011 BKN075 31/25 A2997 RMK AO2 SLP149 T03060250
  • 271852Z 08012KT 10SM FEW013 BKN075 32/25 A2998 RMK AO2 SLP153 T03170250

TAF KGLS
Valid from the 27 at 18:00 until the 28 at 18:00 UTC


271743Z 2718/2818 09010KT P6SM SCT016
FM272200 14010KT P6SM VCSH SCT025 BKN250
FM280500 17013KT P6SM SCT020 BKN250
FM281000 17008KT P6SM VCSH SCT025 BKN250
PROB30 2810/2813 SHRA
FM281600 18010KT P6SM SCT030 OVC250
KZHU FIR / North America



MET'MAP, your aeronautical weather chart ! - Copyright ORBIFLY December 2007 - Disclaimer

ORBIFLY MET'MAP TEAM :

Programming & Development : Alexandra Zaïnal
Concept & original design : Baudouin d'Aumeries
Assistance for programming : Marc-Olivier Méhu
Technical & hardware support : Manuel Goepfert

Contact : metmap@orbifly.com




SOURCES & CREDITS :

   NOAA       Earth
Advisory